Latest Coastal Weather Observations for Alva Beach

IDQ60701

Issued at 5:42 pm EST Friday 20 January 2017 (issued every 10 minutes, with the page automatically refreshed every 10 minutes)

About coastal observations | Map of coastal stations | Coastal observations for QLD | Marine services | Other Formats
Station Details ID: 033295 Name: ALVA BEACH Lat: -19.46 Lon: 147.48 Height: 7.5 m
Data from the previous 72 hours. | See also: Recent months at Alva Beach
Date/Time
EST
Temp
°C
Wind Pressure Rain since
9am
mm
Weather Cloud Vis
km
Sea
Height
m
Swell
Dir  Spd
kts
Gust
kts
hPa Trend Height
m
Period
s
Dir
20/05:30pm 29.5 NE 9 13 1006.2 - 0.0 - - - - - - -
20/05:00pm 29.8 NE 10 13 1005.7 - 0.0 - - - - - - -
20/04:30pm 30.1 NE 11 13 1005.6 - 0.0 - - - - - - -
20/04:00pm 30.2 NE 10 13 1005.7 - 0.0 - - - - - - -
20/03:30pm 30.6 NE 11 13 1006.0 - 0.0 - - - - - - -
20/03:00pm 30.2 NE 10 12 1006.4 - 0.0 - - - - - - -
20/02:30pm 30.9 NE 9 12 1006.7 - 0.0 - - - - - - -
20/02:00pm 30.5 NE 9 11 1007.1 - 0.0 - - - - - - -
20/01:30pm 30.8 NNE 10 12 1007.7 - 0.0 - - - - - - -
20/01:00pm 30.5 NNE 9 12 1008.2 - 0.0 - - - - - - -
20/12:30pm 30.5 NNE 8 10 1008.7 - 0.0 - - - - - - -
20/12:00pm 30.5 NE 8 10 1008.9 - 0.0 - - - - - - -
20/11:30am 30.7 NE 7 9 1009.1 - 0.0 - - - - - - -
20/11:00am 30.3 NE 7 9 1009.5 - 0.0 - - - - - - -
20/10:30am 30.4 NE 6 9 1009.7 - 0.0 - - - - - - -
20/10:00am 30.0 NNE 6 8 1009.9 - 0.0 - - - - - - -
20/09:30am 30.1 NNE 4 6 1009.9 - 0.0 - - - - - - -
20/09:00am 30.0 NE 2 5 1009.8 - 0.0 - - - - - - -
20/08:30am 29.6 CALM 0 3 1009.6 - 0.0 - - - - - - -
20/08:00am 29.3 ESE 1 4 1009.3 - 0.0 - - - - - - -
20/07:30am 28.6 CALM 0 0 1009.2 - 0.0 - - - - - - -
20/07:00am 26.3 CALM 0 0 1009.1 - 0.0 - - - - - - -
20/06:30am 24.6 SW 1 4 1008.9 - 0.0 - - - - - - -
20/06:00am 24.7 CALM 0 0 1008.5 - 0.0 - - - - - - -
20/05:30am 25.9 N 2 5 1008.0 - 0.0 - - - - - - -
20/05:00am 26.9 NNE 5 7 1007.5 - 0.0 - - - - - - -
20/04:30am 27.1 NNE 7 9 1007.4 - 0.0 - - - - - - -
20/04:00am 26.9 NNE 7 9 1007.1 - 0.0 - - - - - - -
20/03:30am 26.9 NNE 7 8 1007.1 - 0.0 - - - - - - -
20/03:00am 27.0 NNE 7 8 1007.4 - 0.0 - - - - - - -
20/02:30am 27.3 NE 8 11 1007.5 - 0.0 - - - - - - -
20/02:00am 27.2 NNE 8 11 1007.7 - 0.0 - - - - - - -
20/01:30am 27.1 NNE 7 11 1007.8 - 0.0 - - - - - - -
20/01:00am 27.1 NNE 9 11 1008.3 - 0.0 - - - - - - -
20/12:30am 27.3 NNE 8 10 1008.4 - 0.0 - - - - - - -
20/12:00am 27.5 NE 9 13 1008.8 - 0.0 - - - - - - -
 
Date/Time
EST
Temp
°C
Wind Pressure Rain since
9am
mm
Weather Cloud Vis
km
Sea
Height
m
Swell
Dir  Spd
kts
Gust
kts
hPa Trend Height
m
Period
s
Dir
19/11:30pm 27.7 NNE 10 13 1008.9 - 0.0 - - - - - - -
19/11:00pm 27.7 NNE 11 13 1009.0 - 0.0 - - - - - - -
19/10:30pm 27.7 NNE 9 13 1009.0 - 0.0 - - - - - - -
19/10:00pm 27.8 NE 9 12 1008.8 - 0.0 - - - - - - -
19/09:30pm 28.0 NE 9 11 1008.4 - 0.0 - - - - - - -
19/09:00pm 28.1 NNE 10 12 1007.9 - 0.0 - - - - - - -
19/08:30pm 28.1 NNE 11 12 1007.6 - 0.0 - - - - - - -
19/08:00pm 28.4 NNE 10 13 1007.3 - 0.0 - - - - - - -
19/07:30pm 28.2 NNE 10 12 1007.1 - 0.0 - - - - - - -
19/07:00pm 28.4 NNE 11 13 1007.0 - 0.0 - - - - - - -
19/06:30pm 28.8 NE 13 14 1006.9 - 0.0 - - - - - - -
19/06:00pm 29.1 NE 13 15 1006.7 - 0.0 - - - - - - -
19/05:30pm 29.3 NNE 13 15 1006.6 - 0.0 - - - - - - -
19/05:00pm 29.6 NE 11 14 1006.7 - 0.0 - - - - - - -
19/04:30pm 30.1 NE 12 15 1006.7 - 0.0 - - - - - - -
19/04:00pm 30.0 NE 12 14 1006.6 - 0.0 - - - - - - -
19/03:30pm 30.4 NE 10 12 1006.9 - 0.0 - - - - - - -
19/03:00pm 30.4 NE 10 12 1007.4 - 0.0 - - - - - - -
19/02:30pm 30.6 NE 9 11 1007.6 - 0.0 - - - - - - -
19/02:00pm 30.6 NE 9 11 1007.7 - 0.0 - - - - - - -
19/01:30pm 30.5 NE 10 12 1008.2 - 0.0 - - - - - - -
19/01:00pm 30.6 NE 9 11 1008.7 - 0.0 - - - - - - -
19/12:30pm 30.2 NE 9 11 1009.3 - 0.0 - - - - - - -
19/12:00pm 30.3 NE 8 11 1009.8 - 0.0 - - - - - - -
19/11:30am 30.4 NE 8 10 1010.0 - 0.0 - - - - - - -
19/11:00am 30.3 ENE 7 9 1010.2 - 0.0 - - - - - - -
19/10:30am 30.6 NE 6 8 1010.5 - 0.0 - - - - - - -
19/10:00am 30.2 NE 5 7 1010.9 - 0.0 - - - - - - -
19/09:30am 30.0 E 4 6 1011.2 - 0.0 - - - - - - -
19/09:00am 30.3 CALM 0 0 1011.4 - 0.0 - - - - - - -
19/08:30am 28.9 SW 1 4 1011.6 - 0.0 - - - - - - -
19/08:00am 28.3 SW 3 5 1011.5 - 0.0 - - - - - - -
19/07:30am 27.1 SW 3 6 1011.6 - 0.0 - - - - - - -
19/07:00am 25.8 SSW 3 5 1011.3 - 0.0 - - - - - - -
19/06:30am 24.8 SSW 5 7 1011.2 - 0.0 - - - - - - -
19/06:00am 24.3 SSW 4 5 1010.6 - 0.0 - - - - - - -
19/05:30am 24.6 SW 3 4 1010.3 - 0.0 - - - - - - -
19/05:00am 24.7 SW 3 4 1010.2 - 0.0 - - - - - - -
19/04:30am 25.1 SW 2 5 1009.9 - 0.0 - - - - - - -
19/04:00am 25.3 CALM 0 0 1009.6 - 0.0 - - - - - - -
19/03:30am 26.6 ENE 5 6 1009.8 - 0.0 - - - - - - -
19/03:00am 26.9 ENE 4 6 1010.0 - 0.0 - - - - - - -
19/02:30am 27.3 ENE 5 7 1010.2 - 0.0 - - - - - - -
19/02:00am 27.3 ENE 6 8 1010.2 - 0.0 - - - - - - -
19/01:30am 27.4 ENE 6 9 1010.3 - 0.0 - - - - - - -
19/01:00am 27.6 ENE 8 10 1010.6 - 0.0 - - - - - - -
19/12:30am 27.8 ENE 8 10 1011.1 - 0.0 - - - - - - -
19/12:00am 27.9 ENE 10 14 1011.1 - 0.0 - - - - - - -
 
Date/Time
EST
Temp
°C
Wind Pressure Rain since
9am
mm
Weather Cloud Vis
km
Sea
Height
m
Swell
Dir  Spd
kts
Gust
kts
hPa Trend Height
m
Period
s
Dir
18/11:30pm 27.8 NE 9 10 1011.4 - 0.0 - - - - - - -
18/11:00pm 28.1 ENE 11 13 1011.5 - 0.0 - - - - - - -
18/10:30pm 28.1 ENE 9 11 1011.5 - 0.0 - - - - - - -
18/10:00pm 28.1 ENE 11 13 1011.5 - 0.0 - - - - - - -
18/09:30pm 28.0 NE 10 13 1011.1 - 0.0 - - - - - - -
18/09:00pm 28.3 ENE 9 13 1011.0 - 0.0 - - - - - - -
18/08:30pm 28.2 ENE 10 13 1010.7 - 0.0 - - - - - - -
18/08:00pm 28.3 ENE 8 11 1010.6 - 0.0 - - - - - - -
18/07:30pm 28.4 NE 8 11 1010.4 - 0.0 - - - - - - -
18/07:00pm 28.4 ENE 9 11 1010.2 - 0.0 - - - - - - -
18/06:30pm 28.6 NE 9 11 1009.9 - 0.0 - - - - - - -
18/06:00pm 29.0 NE 11 13 1009.7 - 0.0 - - - - - - -
18/05:30pm 29.4 ENE 11 13 1009.6 - 0.0 - - - - - - -
18/05:00pm 29.3 ENE 10 14 1009.4 - 0.0 - - - - - - -
18/04:30pm 29.5 ENE 10 13 1009.3 - 0.0 - - - - - - -
18/04:00pm 29.5 ENE 9 12 1009.6 - 0.0 - - - - - - -
18/03:30pm 29.6 ENE 10 12 1009.9 - 0.0 - - - - - - -
18/03:00pm 29.6 ENE 9 11 1010.1 - 0.0 - - - - - - -
18/02:30pm 29.5 ENE 10 13 1010.7 - 0.0 - - - - - - -
18/02:00pm 29.8 ENE 9 12 1011.1 - 0.0 - - - - - - -
18/01:30pm 29.6 ENE 7 10 1011.7 - 0.0 - - - - - - -
18/01:00pm 30.2 E 8 11 1012.1 - 0.0 - - - - - - -
18/12:30pm 29.5 E 7 11 1012.3 - 0.0 - - - - - - -
18/12:00pm 29.6 E 6 9 1012.7 - 0.0 - - - - - - -
18/11:30am 30.0 E 6 10 1013.0 - 0.0 - - - - - - -
18/11:00am 29.9 E 7 12 1013.2 - 0.0 - - - - - - -
18/10:30am 30.1 E 7 10 1013.3 - 0.0 - - - - - - -
18/10:00am 29.6 ESE 6 9 1013.4 - 0.0 - - - - - - -
18/09:30am 30.0 E 7 11 1013.5 - 0.0 - - - - - - -
18/09:00am 29.0 ESE 7 12 1013.6 - 0.4 - - - - - - -
18/08:30am 28.8 SE 6 10 1013.6 - 0.4 - - - - - - -
18/08:00am 27.4 S 5 8 1013.6 - 0.4 - - - - - - -
18/07:30am 26.2 SSW 4 7 1013.5 - 0.4 - - - - - - -
18/07:00am 25.2 SSW 5 7 1013.4 - 0.4 - - - - - - -
18/06:30am 24.5 SW 4 6 1013.2 - 0.4 - - - - - - -
18/06:00am 24.6 SW 4 7 1013.0 - 0.4 - - - - - - -
18/05:30am 25.1 SSW 4 7 1012.5 - 0.4 - - - - - - -
18/05:00am 27.0 E 6 10 1011.8 - 0.4 - - - - - - -
18/04:30am 27.4 E 9 12 1011.2 - 0.4 - - - - - - -
18/04:00am 27.5 E 8 12 1011.1 - 0.4 - - - - - - -
18/03:30am 27.1 E 11 15 1011.0 - 0.4 - - - - - - -
18/03:00am 27.2 E 10 15 1011.2 - 0.4 - - - - - - -
18/02:30am 27.5 E 11 15 1011.3 - 0.4 - - - - - - -
18/02:00am 27.7 E 10 14 1011.4 - 0.4 - - - - - - -
18/01:30am 27.7 E 11 15 1011.6 - 0.4 - - - - - - -
18/01:00am 27.3 E 11 16 1011.8 - 0.4 - - - - - - -
18/12:30am 27.8 E 12 16 1012.3 - 0.4 - - - - - - -
18/12:00am 27.8 E 13 17 1012.8 - 0.4 - - - - - - -
 
Date/Time
EST
Temp
°C
Wind Pressure Rain since
9am
mm
Weather Cloud Vis
km
Sea
Height
m
Swell
Dir  Spd
kts
Gust
kts
hPa Trend Height
m
Period
s
Dir
17/11:30pm 27.7 E 12 15 1013.2 - 0.4 - - - - - - -
17/11:00pm 28.2 E 11 15 1013.5 - 0.4 - - - - - - -
17/10:30pm 28.3 E 11 14 1013.6 - 0.4 - - - - - - -
17/10:00pm 28.3 E 10 13 1013.4 - 0.4 - - - - - - -
17/09:30pm 28.3 E 10 15 1013.3 - 0.4 - - - - - - -
17/09:00pm 28.1 E 11 15 1013.0 - 0.4 - - - - - - -
17/08:30pm 28.1 E 10 13 1012.7 - 0.4 - - - - - - -
17/08:00pm 28.4 ENE 10 14 1012.4 - 0.4 - - - - - - -
17/07:30pm 28.0 ENE 9 12 1012.2 - 0.4 - - - - - - -
17/07:00pm 28.1 E 10 13 1012.0 - 0.4 - - - - - - -
17/06:30pm 28.1 ENE 9 13 1012.2 - 0.4 - - - - - - -
17/06:00pm 27.4 ENE 13 16 1012.1 - 0.4 - - - - - - -

Other Formats:

Comma delimited format used in spreadsheet applications
http://www.bom.gov.au/fwo/IDQ60701/IDQ60701.95296.axf

JavaScript Object Notation format (JSON) in row-major order
http://www.bom.gov.au/fwo/IDQ60701/IDQ60701.95296.json